Ashaway, Rhode Island
Current Conditions -  °F | °C
As of 9:53 AM on Monday 22 Dec 2014 (Local Time) from KWST Reporting Station
Clear Clear  
Wind Chill: 36°   Ceiling: Unl
Heat Index: 41°   Visibility: 10mi
Dew Point: 34°   Wind: 8mph
Humidity: 76%   Direction: 30°NNE
Pressure: 30.36"   Gusts: NA
Location:  41.43°N, 71.79°W
Report Text: KWST 221453Z AUTO 03007KT 10SM CLR 05/01 A3036 RMK AO2 SLP280 T00500011 50002
Loading
Personal Weather Stations






























Interactive Weather Map New forecast layout! Learn more

10-Day Weather Forecast

Advertisements
Track Severe Weather on mobile